Time;durP1;ratioP1;P1;durP2;ratioP2;P2;SDS_P1;SDS_P2;PMS_P1;PMS_P2;Temp;Humidity;BMP_temperature;BMP_pressure;BME280_temperature;BME280_humidity;BME280_pressure;Samples;Min_cycle;Max_cycle;Signal;HPM_P1;HPM_P2
2023/11/28 00:01:42;;;;;;;5.57;4.28;;;;;;;;;;5068446;28;20045;-83
2023/11/28 00:04:09;;;;;;;5.68;4.47;;;;;;;;;;5080785;28;20062;-84
2023/11/28 00:06:35;;;;;;;5.05;3.95;;;;;;;;;;5077617;28;20056;-84
2023/11/28 00:09:00;;;;;;;6.07;4.22;;;;;;;;;;5059028;28;20463;-83
2023/11/28 00:11:26;;;;;;;5.80;4.60;;;;;;;;;;5066158;28;20025;-83
2023/11/28 00:13:51;;;;;;;8.48;5.25;;;;;;;;;;5066990;28;20039;-84
2023/11/28 00:16:17;;;;;;;6.65;5.07;;;;;;;;;;5062713;28;20436;-83
2023/11/28 00:18:43;;;;;;;6.20;4.63;;;;;;;;;;5067900;28;20028;-84
2023/11/28 00:21:09;;;;;;;6.90;5.10;;;;;;;;;;5083336;28;20359;-83
2023/11/28 00:23:34;;;;;;;6.32;5.00;;;;;;;;;;5061830;28;20390;-83
2023/11/28 00:25:59;;;;;;;7.00;5.25;;;;;;;;;;5062851;28;20037;-83
2023/11/28 00:28:25;;;;;;;6.93;5.15;;;;;;;;;;5064302;28;20041;-83
2023/11/28 00:30:52;;;;;;;6.90;5.05;;;;;;;;;;5067537;28;20086;-83
2023/11/28 00:33:18;;;;;;;7.28;5.53;;;;;;;;;;5063699;28;20033;-83
2023/11/28 00:35:43;;;;;;;6.78;4.63;;;;;;;;;;5062177;28;20036;-84
2023/11/28 00:38:09;;;;;;;6.97;5.15;;;;;;;;;;5066500;28;20037;-84
2023/11/28 00:40:34;;;;;;;7.85;4.93;;;;;;;;;;5068645;28;20037;-83
2023/11/28 00:43:01;;;;;;;6.90;5.10;;;;;;;;;;5056322;28;20028;-83
2023/11/28 00:45:26;;;;;;;6.45;4.45;;;;;;;;;;5089558;28;20393;-83
2023/11/28 00:47:54;;;;;;;6.97;5.13;;;;;;;;;;5066109;28;20029;-83
2023/11/28 00:50:20;;;;;;;7.32;4.95;;;;;;;;;;5069205;28;20036;-84
2023/11/28 00:52:46;;;;;;;6.97;4.57;;;;;;;;;;5063850;28;20395;-83
2023/11/28 00:55:12;;;;;;;7.55;5.20;;;;;;;;;;5061437;28;20135;-82
2023/11/28 00:57:39;;;;;;;6.85;5.20;;;;;;;;;;5048468;28;20394;-79
2023/11/28 01:00:07;;;;;;;7.35;4.85;;;;;;;;;;5050537;28;20044;-79
2023/11/28 01:02:33;;;;;;;9.48;4.85;;;;;;;;;;5084286;28;20032;-79
2023/11/28 01:04:58;;;;;;;6.82;4.95;;;;;;;;;;5064781;28;20028;-79
2023/11/28 01:07:24;;;;;;;7.35;5.40;;;;;;;;;;5036783;28;20434;-79
2023/11/28 01:09:49;;;;;;;7.45;5.60;;;;;;;;;;5081690;28;20028;-79
2023/11/28 01:12:15;;;;;;;7.63;5.32;;;;;;;;;;5063123;28;20064;-80
2023/11/28 01:14:40;;;;;;;6.97;5.50;;;;;;;;;;5066966;28;20033;-79
2023/11/28 01:17:06;;;;;;;7.80;5.68;;;;;;;;;;5069227;28;20032;-79
2023/11/28 01:19:36;;;;;;;6.90;5.20;;;;;;;;;;5069792;28;20021;-79
2023/11/28 01:22:01;;;;;;;8.88;6.00;;;;;;;;;;5053930;28;20078;-79
2023/11/28 01:24:27;;;;;;;8.63;5.80;;;;;;;;;;5054174;28;20025;-79
2023/11/28 01:26:53;;;;;;;7.80;5.53;;;;;;;;;;5064469;28;20156;-79
2023/11/28 01:29:19;;;;;;;7.47;5.57;;;;;;;;;;5084135;28;20124;-79
2023/11/28 01:31:44;;;;;;;7.82;5.43;;;;;;;;;;5071353;28;20554;-79
2023/11/28 01:34:10;;;;;;;9.98;5.93;;;;;;;;;;5072140;28;20032;-79
2023/11/28 01:36:38;;;;;;;7.60;5.05;;;;;;;;;;5069268;28;20028;-79
2023/11/28 01:39:10;;;;;;;7.63;5.28;;;;;;;;;;5066130;28;20111;-79
2023/11/28 01:41:36;;;;;;;6.93;5.20;;;;;;;;;;5065732;28;20028;-79
2023/11/28 01:44:05;;;;;;;7.53;5.80;;;;;;;;;;5062498;28;20027;-79
2023/11/28 01:46:35;;;;;;;7.57;5.53;;;;;;;;;;5066354;28;20493;-79
2023/11/28 01:49:02;;;;;;;8.23;6.13;;;;;;;;;;5064612;28;20075;-78
2023/11/28 01:51:28;;;;;;;8.30;5.93;;;;;;;;;;5066000;28;20027;-79
2023/11/28 01:53:56;;;;;;;8.68;5.53;;;;;;;;;;5062818;28;20120;-79
2023/11/28 01:56:23;;;;;;;6.88;5.10;;;;;;;;;;5063097;28;20082;-79
2023/11/28 01:58:51;;;;;;;7.22;5.38;;;;;;;;;;5067102;28;20028;-79
2023/11/28 02:01:17;;;;;;;7.35;5.38;;;;;;;;;;5068101;28;20441;-79
2023/11/28 02:03:46;;;;;;;7.35;5.72;;;;;;;;;;5067151;28;20029;-79
2023/11/28 02:06:12;;;;;;;7.47;5.10;;;;;;;;;;5071515;28;20033;-79
2023/11/28 02:08:38;;;;;;;7.38;5.10;;;;;;;;;;5069566;28;20389;-79
2023/11/28 02:11:03;;;;;;;7.35;5.55;;;;;;;;;;5073358;28;20385;-79
2023/11/28 02:13:32;;;;;;;7.30;5.55;;;;;;;;;;5069027;28;20432;-79
2023/11/28 02:15:58;;;;;;;8.27;5.78;;;;;;;;;;5053421;28;20032;-79
2023/11/28 02:18:24;;;;;;;7.97;5.60;;;;;;;;;;5068226;28;20032;-79
2023/11/28 02:20:49;;;;;;;7.60;5.80;;;;;;;;;;5065847;28;20039;-79
2023/11/28 02:23:17;;;;;;;8.20;5.43;;;;;;;;;;5079981;28;20028;-79
2023/11/28 02:25:50;;;;;;;7.10;5.13;;;;;;;;;;5069266;28;20033;-79
2023/11/28 02:28:20;;;;;;;7.15;5.20;;;;;;;;;;5062649;28;20032;-79
2023/11/28 02:30:47;;;;;;;8.82;5.78;;;;;;;;;;5066662;28;20055;-79
2023/11/28 02:33:14;;;;;;;6.93;5.13;;;;;;;;;;5084164;28;20040;-79
2023/11/28 02:35:41;;;;;;;7.05;5.03;;;;;;;;;;5059934;28;20047;-78
2023/11/28 02:38:07;;;;;;;7.05;4.95;;;;;;;;;;5062782;28;20039;-79
2023/11/28 02:40:32;;;;;;;7.50;5.20;;;;;;;;;;5065691;28;20029;-79
2023/11/28 02:42:57;;;;;;;7.35;5.30;;;;;;;;;;5064560;28;20033;-79
2023/11/28 02:45:23;;;;;;;7.57;5.35;;;;;;;;;;5054606;28;20040;-79
2023/11/28 02:47:48;;;;;;;10.60;5.05;;;;;;;;;;5065046;28;20532;-79
2023/11/28 02:50:14;;;;;;;7.85;5.80;;;;;;;;;;5068026;28;20032;-79
2023/11/28 02:52:42;;;;;;;9.25;6.28;;;;;;;;;;5076380;28;20084;-79
2023/11/28 02:55:07;;;;;;;10.25;5.97;;;;;;;;;;5051917;28;20128;-79
2023/11/28 02:57:33;;;;;;;10.57;7.10;;;;;;;;;;5063832;28;20127;-79
2023/11/28 02:59:59;;;;;;;8.45;6.18;;;;;;;;;;5061250;28;20043;-79
2023/11/28 03:02:25;;;;;;;9.38;6.10;;;;;;;;;;5052958;28;20032;-79
2023/11/28 03:04:51;;;;;;;9.35;6.93;;;;;;;;;;5057974;28;20029;-79
2023/11/28 03:07:16;;;;;;;8.70;6.25;;;;;;;;;;5050447;28;20029;-79
2023/11/28 03:09:41;;;;;;;9.20;6.57;;;;;;;;;;5064510;28;20444;-79
2023/11/28 03:12:08;;;;;;;10.02;7.00;;;;;;;;;;5081990;28;20033;-79
2023/11/28 03:14:34;;;;;;;8.98;6.32;;;;;;;;;;5067037;28;20025;-79
2023/11/28 03:16:59;;;;;;;9.63;6.95;;;;;;;;;;5083192;28;20104;-79
2023/11/28 03:19:26;;;;;;;9.02;6.55;;;;;;;;;;5065039;28;20350;-79
2023/11/28 03:21:52;;;;;;;10.52;6.50;;;;;;;;;;5050475;28;20025;-79
2023/11/28 03:24:17;;;;;;;9.90;6.63;;;;;;;;;;5048188;28;20032;-79
2023/11/28 03:26:42;;;;;;;9.20;6.88;;;;;;;;;;5049653;28;20040;-83
2023/11/28 03:29:08;;;;;;;10.07;6.72;;;;;;;;;;5064740;28;20040;-83
2023/11/28 03:31:33;;;;;;;9.80;6.35;;;;;;;;;;5053852;28;20367;-83
2023/11/28 03:33:59;;;;;;;9.40;6.45;;;;;;;;;;5052043;28;20528;-83
2023/11/28 03:36:25;;;;;;;9.05;6.50;;;;;;;;;;5063675;28;20041;-83
2023/11/28 03:38:53;;;;;;;9.07;6.30;;;;;;;;;;5083288;28;20028;-83
2023/11/28 03:41:18;;;;;;;9.68;6.03;;;;;;;;;;5064936;28;20036;-83
2023/11/28 03:43:44;;;;;;;9.77;6.82;;;;;;;;;;5082414;28;20032;-83
2023/11/28 03:46:09;;;;;;;8.65;6.43;;;;;;;;;;5064616;28;20422;-83
2023/11/28 03:48:35;;;;;;;9.27;5.60;;;;;;;;;;5065991;28;20089;-83
2023/11/28 03:51:00;;;;;;;11.13;6.07;;;;;;;;;;5076110;28;20028;-83
2023/11/28 03:53:26;;;;;;;8.52;5.57;;;;;;;;;;5065557;28;20031;-83
2023/11/28 03:55:51;;;;;;;8.45;5.55;;;;;;;;;;5054546;28;20038;-83
2023/11/28 03:58:16;;;;;;;9.00;6.03;;;;;;;;;;5047676;28;20052;-83
2023/11/28 04:00:44;;;;;;;8.52;6.03;;;;;;;;;;5062157;28;20041;-83
2023/11/28 04:03:09;;;;;;;8.23;5.63;;;;;;;;;;5078144;28;20094;-83
2023/11/28 04:05:34;;;;;;;8.27;5.53;;;;;;;;;;5079528;28;20032;-83
2023/11/28 04:08:00;;;;;;;8.55;5.88;;;;;;;;;;5078319;28;20029;-83
2023/11/28 04:10:25;;;;;;;8.32;5.80;;;;;;;;;;5050209;28;20075;-81
2023/11/28 04:12:51;;;;;;;8.43;5.45;;;;;;;;;;5064259;28;20175;-83
2023/11/28 04:15:17;;;;;;;8.98;4.75;;;;;;;;;;5068458;28;20031;-83
2023/11/28 04:17:42;;;;;;;7.90;4.80;;;;;;;;;;5084949;28;20035;-82
2023/11/28 04:20:09;;;;;;;7.30;4.78;;;;;;;;;;5067621;28;20478;-83
2023/11/28 04:22:35;;;;;;;7.75;4.47;;;;;;;;;;5060363;28;20411;-83
2023/11/28 04:25:00;;;;;;;6.82;4.57;;;;;;;;;;5051311;28;20510;-83
2023/11/28 04:27:25;;;;;;;9.68;4.53;;;;;;;;;;5051130;28;20127;-83
2023/11/28 04:29:51;;;;;;;6.85;4.05;;;;;;;;;;5047990;28;20486;-82
2023/11/28 04:32:16;;;;;;;7.07;4.00;;;;;;;;;;5060475;28;20040;-83
2023/11/28 04:34:42;;;;;;;5.40;3.35;;;;;;;;;;5046851;28;20044;-83
2023/11/28 04:37:08;;;;;;;6.13;3.35;;;;;;;;;;5064678;28;20048;-79
2023/11/28 04:39:36;;;;;;;5.55;3.13;;;;;;;;;;5059901;28;20103;-78
2023/11/28 04:42:02;;;;;;;5.55;3.00;;;;;;;;;;5064563;28;20038;-79
2023/11/28 04:44:32;;;;;;;5.72;3.35;;;;;;;;;;5065468;28;20025;-79
2023/11/28 04:46:57;;;;;;;4.55;2.72;;;;;;;;;;5063383;28;20464;-79
2023/11/28 04:49:23;;;;;;;6.88;2.92;;;;;;;;;;5067954;28;20108;-79
2023/11/28 04:51:51;;;;;;;5.97;2.78;;;;;;;;;;5079088;28;20063;-79
2023/11/28 04:54:17;;;;;;;5.68;2.90;;;;;;;;;;5066751;28;20024;-78
2023/11/28 04:56:42;;;;;;;5.22;2.50;;;;;;;;;;5061596;28;20029;-79
2023/11/28 04:59:09;;;;;;;4.82;2.53;;;;;;;;;;5061560;28;20025;-78
2023/11/28 05:01:43;;;;;;;5.85;2.25;;;;;;;;;;5065108;28;20041;-79
2023/11/28 05:04:09;;;;;;;4.45;2.35;;;;;;;;;;5065046;28;20053;-78
2023/11/28 05:06:34;;;;;;;5.10;1.92;;;;;;;;;;5060831;28;20455;-78
2023/11/28 05:09:00;;;;;;;3.83;2.08;;;;;;;;;;5079069;28;20033;-79
2023/11/28 05:11:25;;;;;;;4.32;2.20;;;;;;;;;;5050882;28;20040;-79
2023/11/28 05:13:51;;;;;;;4.55;2.20;;;;;;;;;;5065223;28;20029;-79
2023/11/28 05:16:16;;;;;;;5.50;2.30;;;;;;;;;;5032571;28;20033;-79
2023/11/28 05:18:41;;;;;;;3.45;2.05;;;;;;;;;;5061725;28;20483;-79
2023/11/28 05:21:08;;;;;;;4.45;2.30;;;;;;;;;;5051957;28;20553;-79
2023/11/28 05:23:34;;;;;;;4.80;2.20;;;;;;;;;;5050708;28;20035;-79
2023/11/28 05:25:59;;;;;;;4.75;2.28;;;;;;;;;;5068575;28;20033;-78
2023/11/28 05:28:25;;;;;;;3.97;1.58;;;;;;;;;;5099556;28;20462;-79
2023/11/28 05:30:50;;;;;;;3.08;1.75;;;;;;;;;;5050978;28;20028;-78
2023/11/28 05:33:16;;;;;;;3.25;1.80;;;;;;;;;;5054731;28;20071;-79
2023/11/28 05:35:41;;;;;;;3.92;2.03;;;;;;;;;;5064484;28;20029;-79
2023/11/28 05:38:07;;;;;;;3.47;1.83;;;;;;;;;;5061037;28;20112;-78
2023/11/28 05:40:33;;;;;;;5.40;2.17;;;;;;;;;;5068205;28;20379;-79
2023/11/28 05:42:58;;;;;;;3.38;1.83;;;;;;;;;;5051712;28;20035;-78
2023/11/28 05:45:23;;;;;;;3.38;1.85;;;;;;;;;;5062302;28;20039;-78
2023/11/28 05:47:51;;;;;;;3.67;2.20;;;;;;;;;;5064195;28;20075;-78
2023/11/28 05:50:16;;;;;;;3.78;1.73;;;;;;;;;;5066186;28;20048;-79
2023/11/28 05:52:42;;;;;;;5.82;2.22;;;;;;;;;;5064482;28;20075;-79
2023/11/28 05:55:07;;;;;;;4.07;2.10;;;;;;;;;;5067138;28;20029;-78
2023/11/28 05:57:33;;;;;;;4.03;2.15;;;;;;;;;;5053124;28;20031;-79
2023/11/28 05:59:58;;;;;;;5.40;2.22;;;;;;;;;;5062802;28;20066;-79
2023/11/28 06:02:24;;;;;;;4.55;2.35;;;;;;;;;;5079765;28;20059;-78
2023/11/28 06:04:49;;;;;;;5.07;2.15;;;;;;;;;;5053943;28;20035;-78
2023/11/28 06:07:15;;;;;;;6.30;2.40;;;;;;;;;;5074112;28;20044;-78
2023/11/28 06:09:40;;;;;;;5.80;2.70;;;;;;;;;;5051837;28;20045;-78
2023/11/28 06:12:06;;;;;;;4.40;2.22;;;;;;;;;;5061654;28;20043;-79
2023/11/28 06:14:32;;;;;;;4.45;2.40;;;;;;;;;;5061884;28;20082;-78
2023/11/28 06:16:59;;;;;;;3.80;2.03;;;;;;;;;;5060961;28;20033;-78
2023/11/28 06:19:25;;;;;;;6.22;2.58;;;;;;;;;;5063992;28;20029;-79
2023/11/28 06:21:50;;;;;;;4.45;2.20;;;;;;;;;;5062558;28;20540;-78
2023/11/28 06:24:16;;;;;;;4.78;2.30;;;;;;;;;;5059880;28;20025;-78
2023/11/28 06:26:41;;;;;;;4.63;2.42;;;;;;;;;;5059749;28;20119;-78
2023/11/28 06:29:06;;;;;;;5.47;2.10;;;;;;;;;;5049652;28;20063;-78
2023/11/28 06:31:32;;;;;;;4.15;2.38;;;;;;;;;;5063273;28;20406;-78
2023/11/28 06:33:57;;;;;;;4.53;2.40;;;;;;;;;;5075505;28;20398;-78
2023/11/28 06:36:23;;;;;;;4.97;2.63;;;;;;;;;;5033718;28;20025;-78
2023/11/28 06:38:48;;;;;;;4.70;2.40;;;;;;;;;;5045993;28;20033;-78
2023/11/28 06:41:14;;;;;;;6.10;3.40;;;;;;;;;;5049830;28;20115;-78
2023/11/28 06:43:40;;;;;;;6.45;2.70;;;;;;;;;;5066355;28;20442;-79
2023/11/28 06:46:05;;;;;;;6.57;2.95;;;;;;;;;;5062044;28;20170;-78
2023/11/28 06:48:31;;;;;;;5.78;2.72;;;;;;;;;;5048928;28;20391;-78
2023/11/28 06:50:57;;;;;;;6.75;3.47;;;;;;;;;;5062629;28;20418;-78
2023/11/28 06:53:22;;;;;;;8.80;3.58;;;;;;;;;;5063428;28;20063;-78
2023/11/28 06:55:52;;;;;;;6.30;3.05;;;;;;;;;;5064178;28;20043;-79
2023/11/28 06:58:17;;;;;;;4.55;2.50;;;;;;;;;;5062474;28;20052;-83
2023/11/28 07:00:43;;;;;;;5.18;2.88;;;;;;;;;;5062286;28;20109;-84
2023/11/28 07:03:08;;;;;;;4.55;2.55;;;;;;;;;;5060220;28;20032;-84
2023/11/28 07:05:33;;;;;;;5.45;2.58;;;;;;;;;;5053444;28;20036;-83
2023/11/28 07:07:59;;;;;;;5.72;2.50;;;;;;;;;;5063247;28;20025;-83
2023/11/28 07:10:24;;;;;;;6.18;2.70;;;;;;;;;;5064218;28;20043;-84
2023/11/28 07:12:50;;;;;;;5.28;2.60;;;;;;;;;;5047227;28;20490;-84
2023/11/28 07:15:16;;;;;;;7.68;3.40;;;;;;;;;;5072856;28;20024;-84
2023/11/28 07:17:42;;;;;;;7.28;3.28;;;;;;;;;;5046928;28;20055;-85
2023/11/28 07:20:09;;;;;;;7.95;3.60;;;;;;;;;;5048100;28;20495;-84
2023/11/28 07:22:35;;;;;;;8.38;4.28;;;;;;;;;;5061844;28;20036;-84
2023/11/28 07:25:01;;;;;;;11.20;4.20;;;;;;;;;;5063459;28;20029;-86
2023/11/28 07:27:26;;;;;;;7.75;3.83;;;;;;;;;;5051632;28;20028;-84
2023/11/28 07:29:53;;;;;;;8.32;3.97;;;;;;;;;;5067425;28;20044;-84
2023/11/28 07:32:19;;;;;;;12.07;3.85;;;;;;;;;;5038808;28;20060;-85
2023/11/28 07:34:44;;;;;;;6.57;3.08;;;;;;;;;;5062674;28;20040;-85
2023/11/28 07:37:10;;;;;;;5.90;3.00;;;;;;;;;;5050645;28;20027;-84
2023/11/28 07:39:35;;;;;;;6.68;2.53;;;;;;;;;;5069689;28;20055;-84
2023/11/28 07:42:01;;;;;;;8.25;3.00;;;;;;;;;;5058494;28;20040;-84
2023/11/28 07:44:28;;;;;;;5.63;3.08;;;;;;;;;;5064203;28;20103;-84
2023/11/28 07:46:53;;;;;;;8.65;3.22;;;;;;;;;;5050954;28;20067;-84
2023/11/28 07:49:18;;;;;;;7.55;3.28;;;;;;;;;;5062394;28;20482;-85
2023/11/28 07:51:44;;;;;;;7.55;2.70;;;;;;;;;;5047747;28;20048;-85
2023/11/28 07:54:10;;;;;;;6.43;2.50;;;;;;;;;;5062535;28;20040;-85
2023/11/28 07:56:35;;;;;;;4.43;2.40;;;;;;;;;;5082040;28;20032;-79
2023/11/28 07:59:02;;;;;;;4.45;2.28;;;;;;;;;;5067741;28;20090;-79
2023/11/28 08:01:27;;;;;;;5.00;2.13;;;;;;;;;;5064564;28;20032;-79
2023/11/28 08:04:02;;;;;;;4.15;2.42;;;;;;;;;;5062040;28;20520;-79
2023/11/28 08:06:27;;;;;;;4.47;2.40;;;;;;;;;;5067539;28;20048;-79
2023/11/28 08:08:53;;;;;;;3.92;1.95;;;;;;;;;;5062083;28;20033;-85
2023/11/28 08:11:19;;;;;;;5.07;2.60;;;;;;;;;;5049942;28;20055;-85
2023/11/28 08:13:45;;;;;;;3.83;2.22;;;;;;;;;;5051368;28;20382;-85
2023/11/28 08:16:11;;;;;;;3.63;2.08;;;;;;;;;;5049533;28;20033;-85
2023/11/28 08:18:36;;;;;;;3.67;2.35;;;;;;;;;;5050980;28;20042;-81
2023/11/28 08:21:05;;;;;;;4.15;2.40;;;;;;;;;;5069790;28;20078;-85
2023/11/28 08:23:30;;;;;;;4.70;2.63;;;;;;;;;;5049255;28;20028;-85
2023/11/28 08:25:56;;;;;;;3.90;2.15;;;;;;;;;;5036360;28;20033;-85
2023/11/28 08:28:23;;;;;;;4.30;2.20;;;;;;;;;;5054056;28;20551;-85
2023/11/28 08:30:50;;;;;;;3.50;2.20;;;;;;;;;;5102228;28;20095;-86
2023/11/28 08:33:18;;;;;;;4.78;2.40;;;;;;;;;;5066318;28;21350;-85
2023/11/28 08:35:44;;;;;;;3.63;2.20;;;;;;;;;;5067932;28;20036;-85
2023/11/28 08:38:09;;;;;;;3.35;2.15;;;;;;;;;;5066486;28;20028;-85
2023/11/28 08:40:35;;;;;;;6.03;2.33;;;;;;;;;;5066784;28;20039;-85
2023/11/28 08:43:00;;;;;;;4.78;2.45;;;;;;;;;;5052439;28;20032;-85
2023/11/28 08:45:26;;;;;;;5.20;2.30;;;;;;;;;;5066069;28;20442;-85
2023/11/28 08:47:52;;;;;;;5.70;2.65;;;;;;;;;;5050394;28;20048;-84
2023/11/28 08:50:17;;;;;;;4.82;2.20;;;;;;;;;;5063681;28;20107;-85
2023/11/28 08:52:43;;;;;;;4.43;2.40;;;;;;;;;;5068961;28;20032;-85
2023/11/28 08:55:08;;;;;;;4.93;2.50;;;;;;;;;;5070616;28;20032;-85
2023/11/28 08:57:34;;;;;;;4.25;2.30;;;;;;;;;;5066994;28;20051;-84
2023/11/28 09:00:04;;;;;;;3.88;2.08;;;;;;;;;;5053813;28;20028;-85
2023/11/28 09:02:30;;;;;;;5.55;2.78;;;;;;;;;;5082882;28;20041;-85
2023/11/28 09:04:56;;;;;;;4.68;2.60;;;;;;;;;;5074337;28;20033;-85
2023/11/28 09:07:21;;;;;;;4.20;2.40;;;;;;;;;;5052429;28;20381;-79
2023/11/28 09:09:47;;;;;;;4.20;2.33;;;;;;;;;;5066151;28;20036;-78
2023/11/28 09:12:16;;;;;;;5.15;2.58;;;;;;;;;;5065241;28;20028;-79
2023/11/28 09:14:42;;;;;;;5.22;2.30;;;;;;;;;;5067015;28;20029;-79
2023/11/28 09:17:07;;;;;;;4.82;2.40;;;;;;;;;;5053927;28;20111;-79
2023/11/28 09:19:33;;;;;;;4.63;2.45;;;;;;;;;;5065550;28;20056;-79
2023/11/28 09:22:01;;;;;;;5.93;2.60;;;;;;;;;;5066439;28;20067;-78
2023/11/28 09:24:27;;;;;;;4.68;2.55;;;;;;;;;;5052996;28;20028;-79
2023/11/28 09:26:52;;;;;;;5.00;2.50;;;;;;;;;;5065969;28;20028;-79
2023/11/28 09:29:22;;;;;;;5.25;2.70;;;;;;;;;;5064852;28;20035;-78
2023/11/28 09:31:47;;;;;;;4.40;2.50;;;;;;;;;;5056206;28;20028;-78
2023/11/28 09:34:13;;;;;;;6.35;2.75;;;;;;;;;;5067761;28;20383;-78
2023/11/28 09:36:38;;;;;;;6.28;2.70;;;;;;;;;;5052197;28;20126;-78
2023/11/28 09:39:05;;;;;;;5.03;2.97;;;;;;;;;;5061833;28;20036;-78
2023/11/28 09:41:35;;;;;;;4.68;2.50;;;;;;;;;;5052714;28;20544;-78
2023/11/28 09:44:03;;;;;;;5.43;2.78;;;;;;;;;;5065675;28;20111;-78
2023/11/28 09:46:30;;;;;;;6.05;3.10;;;;;;;;;;5070869;28;20035;-78
2023/11/28 09:48:59;;;;;;;7.40;2.97;;;;;;;;;;5069816;28;20060;-78
2023/11/28 09:51:27;;;;;;;7.18;2.60;;;;;;;;;;5068680;28;20111;-78
2023/11/28 09:53:57;;;;;;;4.40;2.40;;;;;;;;;;5070603;28;20025;-78
2023/11/28 09:56:24;;;;;;;4.63;2.55;;;;;;;;;;5066162;28;20043;-78
2023/11/28 09:58:55;;;;;;;4.30;2.80;;;;;;;;;;5062253;28;20043;-78
2023/11/28 10:01:21;;;;;;;4.32;2.42;;;;;;;;;;5064959;28;20023;-78
2023/11/28 10:03:47;;;;;;;4.32;2.47;;;;;;;;;;5070729;28;20036;-78
2023/11/28 10:06:17;;;;;;;5.00;2.45;;;;;;;;;;5062556;28;20032;-78
2023/11/28 10:08:44;;;;;;;4.95;2.47;;;;;;;;;;5064448;28;20248;-78
2023/11/28 10:11:12;;;;;;;5.18;2.78;;;;;;;;;;5071176;28;20028;-78
2023/11/28 10:13:38;;;;;;;6.43;2.80;;;;;;;;;;5071868;28;20028;-78
2023/11/28 10:16:04;;;;;;;5.32;2.50;;;;;;;;;;5083185;28;20082;-78
2023/11/28 10:18:30;;;;;;;6.22;2.67;;;;;;;;;;5047379;28;20035;-78
2023/11/28 10:20:56;;;;;;;5.70;2.88;;;;;;;;;;5050602;28;20037;-78
2023/11/28 10:23:21;;;;;;;4.88;2.60;;;;;;;;;;5053597;28;20032;-78
2023/11/28 10:25:47;;;;;;;5.30;2.75;;;;;;;;;;5061280;28;20040;-78
2023/11/28 10:28:14;;;;;;;6.72;3.20;;;;;;;;;;5052366;28;20028;-78
2023/11/28 10:30:46;;;;;;;4.70;2.58;;;;;;;;;;5066336;28;20025;-79
2023/11/28 10:33:12;;;;;;;5.38;2.80;;;;;;;;;;5062693;28;20516;-78
2023/11/28 10:35:42;;;;;;;6.53;2.50;;;;;;;;;;5084714;28;20032;-78
2023/11/28 10:38:14;;;;;;;4.95;2.78;;;;;;;;;;5069724;28;20446;-78
2023/11/28 10:40:49;;;;;;;4.68;2.55;;;;;;;;;;5084034;28;20036;-78
2023/11/28 10:43:15;;;;;;;5.63;2.78;;;;;;;;;;5068757;28;20028;-78
2023/11/28 10:45:45;;;;;;;5.22;2.40;;;;;;;;;;5068818;28;20119;-78
2023/11/28 10:48:11;;;;;;;6.10;3.22;;;;;;;;;;5065175;28;20054;-78
2023/11/28 10:50:37;;;;;;;7.78;3.08;;;;;;;;;;5050215;28;20058;-78
2023/11/28 10:53:04;;;;;;;4.78;2.72;;;;;;;;;;5048702;28;20550;-78
2023/11/28 10:55:37;;;;;;;5.43;2.80;;;;;;;;;;5068224;28;20021;-77
2023/11/28 10:58:05;;;;;;;4.15;2.20;;;;;;;;;;5069148;28;20108;-78
2023/11/28 11:00:37;;;;;;;4.97;2.60;;;;;;;;;;5066695;28;20029;-78
2023/11/28 11:03:03;;;;;;;5.03;2.53;;;;;;;;;;5052417;28;20033;-78
2023/11/28 11:05:29;;;;;;;5.97;2.38;;;;;;;;;;5065365;28;20094;-78
2023/11/28 11:07:58;;;;;;;4.03;2.35;;;;;;;;;;5064861;28;20095;-78
2023/11/28 11:10:25;;;;;;;5.18;2.58;;;;;;;;;;5048325;28;20056;-78
2023/11/28 11:13:00;;;;;;;5.50;2.55;;;;;;;;;;5044794;28;20032;-78
2023/11/28 11:15:35;;;;;;;5.68;2.55;;;;;;;;;;5062709;28;20029;-78
2023/11/28 11:18:18;;;;;;;4.82;2.45;;;;;;;;;;5061450;28;20037;-77
2023/11/28 11:20:47;;;;;;;3.88;2.17;;;;;;;;;;5064842;28;20029;-78
2023/11/28 11:23:15;;;;;;;5.18;2.53;;;;;;;;;;5066161;28;20063;-78
2023/11/28 11:25:45;;;;;;;5.05;2.50;;;;;;;;;;5081961;28;20043;-78
2023/11/28 11:28:10;;;;;;;4.28;2.08;;;;;;;;;;5064937;28;20040;-83
2023/11/28 11:30:37;;;;;;;8.48;2.90;;;;;;;;;;5050885;28;20078;-83
2023/11/28 11:33:05;;;;;;;5.13;2.58;;;;;;;;;;5061786;28;20021;-83
2023/11/28 11:35:31;;;;;;;5.28;2.63;;;;;;;;;;5064476;28;20032;-83
2023/11/28 11:38:02;;;;;;;4.30;2.35;;;;;;;;;;5062753;28;20028;-78
2023/11/28 11:40:30;;;;;;;5.65;2.55;;;;;;;;;;5070007;28;20024;-78
2023/11/28 11:42:55;;;;;;;6.13;2.53;;;;;;;;;;5061297;28;20056;-79
2023/11/28 11:45:21;;;;;;;4.65;2.42;;;;;;;;;;5060529;28;20068;-78
2023/11/28 11:47:46;;;;;;;4.63;2.58;;;;;;;;;;5051793;28;20035;-78
2023/11/28 11:50:16;;;;;;;4.72;2.50;;;;;;;;;;5070134;28;20032;-77
2023/11/28 11:52:42;;;;;;;4.90;2.67;;;;;;;;;;5067992;28;20036;-78
2023/11/28 11:55:09;;;;;;;5.38;2.67;;;;;;;;;;5051193;28;20029;-77
2023/11/28 11:57:37;;;;;;;4.57;2.60;;;;;;;;;;5085828;28;20109;-77
2023/11/28 12:00:04;;;;;;;3.80;2.40;;;;;;;;;;5057768;28;20111;-78
2023/11/28 12:02:40;;;;;;;5.30;2.53;;;;;;;;;;5058256;28;20086;-78
2023/11/28 12:05:07;;;;;;;4.57;2.15;;;;;;;;;;5053491;28;20033;-78
2023/11/28 12:07:33;;;;;;;5.45;2.70;;;;;;;;;;5061900;28;20379;-77
2023/11/28 12:10:08;;;;;;;4.13;2.22;;;;;;;;;;5066817;28;20031;-78
2023/11/28 12:12:34;;;;;;;3.72;2.25;;;;;;;;;;5068839;28;20028;-78
2023/11/28 12:14:59;;;;;;;6.03;2.38;;;;;;;;;;5053358;28;20112;-78
2023/11/28 12:17:25;;;;;;;3.80;2.13;;;;;;;;;;5063924;28;20478;-78
2023/11/28 12:19:50;;;;;;;5.63;1.95;;;;;;;;;;5065873;28;20139;-78
2023/11/28 12:22:16;;;;;;;5.40;2.40;;;;;;;;;;5052198;28;20480;-78
2023/11/28 12:24:41;;;;;;;6.50;2.70;;;;;;;;;;5060892;28;20042;-78
2023/11/28 12:27:07;;;;;;;6.32;2.38;;;;;;;;;;5052685;28;20558;-78
2023/11/28 12:29:35;;;;;;;4.75;2.15;;;;;;;;;;5067132;28;20032;-78
2023/11/28 12:32:00;;;;;;;4.20;2.40;;;;;;;;;;5067305;28;20086;-78
2023/11/28 12:34:27;;;;;;;7.70;3.28;;;;;;;;;;5062146;28;20029;-78
2023/11/28 12:36:56;;;;;;;5.05;2.28;;;;;;;;;;5048373;28;20199;-78
2023/11/28 12:39:31;;;;;;;6.10;2.60;;;;;;;;;;5050773;28;20123;-78
2023/11/28 12:41:57;;;;;;;4.10;1.98;;;;;;;;;;5063614;28;20033;-78
2023/11/28 12:44:30;;;;;;;4.50;2.13;;;;;;;;;;5082476;28;20042;-78
2023/11/28 12:46:59;;;;;;;4.47;2.22;;;;;;;;;;5069028;28;20039;-84
2023/11/28 12:49:26;;;;;;;2.92;1.90;;;;;;;;;;5065789;28;20032;-84
2023/11/28 12:51:56;;;;;;;4.38;2.28;;;;;;;;;;5065033;28;20039;-84
2023/11/28 12:54:21;;;;;;;5.93;2.13;;;;;;;;;;5084248;28;20020;-84
2023/11/28 12:56:52;;;;;;;5.05;2.15;;;;;;;;;;5067323;28;20032;-80
2023/11/28 12:59:18;;;;;;;6.90;2.45;;;;;;;;;;5050003;28;20524;-83
2023/11/28 13:01:45;;;;;;;4.05;2.22;;;;;;;;;;5067679;28;20078;-83
2023/11/28 13:04:11;;;;;;;5.15;2.28;;;;;;;;;;5049469;28;20560;-83
2023/11/28 13:06:39;;;;;;;4.13;2.20;;;;;;;;;;5067212;28;20131;-84
2023/11/28 13:09:08;;;;;;;3.50;2.00;;;;;;;;;;5064570;28;20040;-84
2023/11/28 13:11:34;;;;;;;6.35;2.88;;;;;;;;;;5059254;28;20032;-83
2023/11/28 13:14:03;;;;;;;6.82;2.53;;;;;;;;;;5082189;28;20032;-84
2023/11/28 13:16:29;;;;;;;5.35;2.25;;;;;;;;;;5060738;28;20029;-82
2023/11/28 13:18:56;;;;;;;6.13;2.60;;;;;;;;;;5064152;28;20116;-83
2023/11/28 13:21:24;;;;;;;6.35;2.50;;;;;;;;;;5058285;28;20029;-83
2023/11/28 13:23:49;;;;;;;5.00;2.47;;;;;;;;;;5035683;28;20037;-83
2023/11/28 13:26:15;;;;;;;5.63;2.50;;;;;;;;;;5064764;28;20390;-83
2023/11/28 13:28:41;;;;;;;4.93;2.28;;;;;;;;;;5065292;28;20036;-83
2023/11/28 13:31:09;;;;;;;4.85;2.35;;;;;;;;;;5063448;28;20032;-83
2023/11/28 13:33:34;;;;;;;6.07;2.70;;;;;;;;;;5061133;28;20380;-83
2023/11/28 13:36:00;;;;;;;4.65;2.33;;;;;;;;;;5063696;28;20490;-82
2023/11/28 13:38:29;;;;;;;6.28;2.53;;;;;;;;;;5063682;28;20507;-83
2023/11/28 13:40:57;;;;;;;5.75;2.42;;;;;;;;;;5052249;28;20402;-82
2023/11/28 13:43:25;;;;;;;4.88;2.60;;;;;;;;;;5064840;28;20024;-82
2023/11/28 13:45:51;;;;;;;6.43;2.60;;;;;;;;;;5081446;28;20029;-81
2023/11/28 13:48:16;;;;;;;6.40;2.17;;;;;;;;;;5087290;28;20033;-78
2023/11/28 13:50:42;;;;;;;4.68;2.33;;;;;;;;;;5065509;28;20032;-78
2023/11/28 13:53:08;;;;;;;5.03;2.08;;;;;;;;;;5081220;28;20111;-79
2023/11/28 13:55:36;;;;;;;5.22;2.17;;;;;;;;;;5080188;28;20036;-78
2023/11/28 13:58:02;;;;;;;3.08;1.73;;;;;;;;;;5067389;28;20021;-79
2023/11/28 14:00:27;;;;;;;7.10;2.20;;;;;;;;;;5052436;28;20119;-78
2023/11/28 14:02:53;;;;;;;4.05;2.00;;;;;;;;;;5054229;28;20032;-78
2023/11/28 14:05:19;;;;;;;4.10;2.28;;;;;;;;;;5055146;28;20032;-79
2023/11/28 14:07:45;;;;;;;4.78;2.00;;;;;;;;;;5080164;28;20032;-78
2023/11/28 14:10:11;;;;;;;4.20;2.30;;;;;;;;;;5071897;28;20470;-79
2023/11/28 14:12:40;;;;;;;5.53;2.03;;;;;;;;;;5067814;28;20082;-79
2023/11/28 14:15:06;;;;;;;4.38;2.42;;;;;;;;;;5070931;28;20032;-78
2023/11/28 14:17:32;;;;;;;5.00;2.38;;;;;;;;;;5081755;28;20060;-78
2023/11/28 14:19:57;;;;;;;6.10;3.42;;;;;;;;;;5054048;28;20032;-78
2023/11/28 14:22:24;;;;;;;6.32;2.92;;;;;;;;;;5060354;28;20082;-79
2023/11/28 14:24:50;;;;;;;4.47;2.50;;;;;;;;;;5070001;28;20036;-78
2023/11/28 14:27:16;;;;;;;6.05;3.90;;;;;;;;;;5081360;28;20040;-78
2023/11/28 14:29:42;;;;;;;7.05;3.88;;;;;;;;;;5064986;28;20066;-78
2023/11/28 14:32:07;;;;;;;6.63;3.85;;;;;;;;;;5064191;28;20031;-79
2023/11/28 14:34:32;;;;;;;9.13;3.90;;;;;;;;;;5062457;28;20086;-79
2023/11/28 14:36:58;;;;;;;8.70;4.40;;;;;;;;;;5035955;28;20612;-79
2023/11/28 14:39:24;;;;;;;8.23;4.68;;;;;;;;;;5054329;28;20036;-79